createdAt,value
2023-03-22T00:01:23.269Z,10.63
2023-03-22T00:03:50.834Z,10.63
2023-03-22T00:06:18.378Z,10.63
2023-03-22T00:08:45.789Z,10.65
2023-03-22T00:11:12.971Z,10.61
2023-03-22T00:13:42.958Z,10.42
2023-03-22T00:16:11.081Z,10.42
2023-03-22T00:21:04.375Z,10.58
2023-03-22T00:23:31.270Z,10.74
2023-03-22T00:25:57.996Z,10.73
2023-03-22T00:28:25.101Z,10.68
2023-03-22T00:31:00.071Z,10.69
2023-03-22T00:33:27.692Z,10.63
2023-03-22T00:36:07.008Z,10.65
2023-03-22T00:38:44.087Z,10.62
2023-03-22T00:41:12.790Z,10.57
2023-03-22T00:43:39.539Z,10.64
2023-03-22T00:46:06.465Z,10.57
2023-03-22T00:48:33.150Z,10.48
2023-03-22T00:51:00.003Z,10.35
2023-03-22T00:53:29.099Z,10.30
2023-03-22T00:55:59.004Z,10.25
2023-03-22T00:58:25.571Z,10.22
2023-03-22T01:00:52.205Z,10.20
2023-03-22T01:05:46.346Z,10.00
2023-03-22T01:08:13.011Z,9.96
2023-03-22T01:10:41.269Z,9.91
2023-03-22T01:13:08.433Z,9.91
2023-03-22T01:18:02.265Z,9.93
2023-03-22T01:20:29.742Z,9.89
2023-03-22T01:22:56.281Z,9.86
2023-03-22T01:25:22.984Z,9.84
2023-03-22T01:27:49.570Z,9.81
2023-03-22T01:30:16.471Z,9.84
2023-03-22T01:32:43.104Z,9.85
2023-03-22T01:35:10.196Z,9.79
2023-03-22T01:40:04.477Z,9.79
2023-03-22T01:42:31.110Z,9.69
2023-03-22T01:45:16.617Z,9.68
2023-03-22T01:47:51.420Z,9.68
2023-03-22T01:50:18.309Z,9.74
2023-03-22T01:52:45.096Z,9.89
2023-03-22T01:55:12.659Z,9.91
2023-03-22T01:57:42.061Z,9.84
2023-03-22T02:00:13.920Z,9.73
2023-03-22T02:02:40.905Z,9.71
2023-03-22T02:05:07.794Z,9.61
2023-03-22T02:10:04.094Z,9.55
2023-03-22T02:18:16.616Z,9.51
2023-03-22T02:21:18.741Z,9.55
2023-03-22T02:23:57.417Z,9.39
2023-03-22T02:27:04.997Z,9.33
2023-03-22T02:30:33.552Z,9.30
2023-03-22T02:33:24.438Z,9.22
2023-03-22T02:36:06.141Z,9.31
2023-03-22T02:39:00.433Z,9.25
2023-03-22T02:41:53.333Z,9.29
2023-03-22T02:44:42.958Z,9.30
2023-03-22T02:47:28.681Z,9.30
2023-03-22T02:53:16.184Z,9.15
2023-03-22T02:56:11.146Z,9.19
2023-03-22T02:58:39.718Z,9.11
2023-03-22T03:01:11.306Z,9.10
2023-03-22T03:03:39.947Z,9.06
2023-03-22T03:06:14.415Z,9.06
2023-03-22T03:08:41.275Z,9.05
2023-03-22T03:11:10.581Z,8.98
2023-03-22T03:16:07.862Z,8.90
2023-03-22T03:18:55.912Z,8.85
2023-03-22T03:21:45.256Z,8.87
2023-03-22T03:24:22.703Z,8.83
2023-03-22T03:26:59.895Z,8.76
2023-03-22T03:29:32.595Z,8.75
2023-03-22T03:32:25.724Z,8.76
2023-03-22T03:35:04.881Z,8.73
2023-03-22T03:37:41.522Z,8.72
2023-03-22T03:40:14.742Z,8.68
2023-03-22T03:42:46.879Z,8.65
2023-03-22T03:45:15.521Z,8.62
2023-03-22T03:47:44.593Z,8.61
2023-03-22T03:50:15.692Z,8.63
2023-03-22T03:52:42.757Z,8.67
2023-03-22T03:55:09.631Z,8.70
2023-03-22T04:00:04.219Z,8.75
2023-03-22T04:02:30.752Z,8.78
2023-03-22T04:04:57.392Z,8.84
2023-03-22T04:07:24.066Z,8.89
2023-03-22T04:09:52.755Z,8.94
2023-03-22T04:12:19.217Z,8.95
2023-03-22T04:14:46.001Z,8.98
2023-03-22T04:17:13.074Z,8.97
2023-03-22T04:19:39.765Z,8.95
2023-03-22T04:22:06.275Z,8.92
2023-03-22T04:24:32.854Z,8.92
2023-03-22T04:26:59.563Z,8.88
2023-03-22T04:29:26.241Z,8.82
2023-03-22T04:31:53.235Z,8.78
2023-03-22T04:34:19.910Z,8.71
2023-03-22T04:36:47.000Z,8.66
2023-03-22T04:39:13.649Z,8.64
2023-03-22T04:41:48.595Z,8.67
2023-03-22T04:44:15.418Z,8.59
2023-03-22T04:46:43.933Z,8.55
2023-03-22T04:49:10.868Z,8.48
2023-03-22T04:54:03.923Z,8.43
2023-03-22T04:56:31.033Z,8.42
2023-03-22T04:58:57.709Z,8.39
2023-03-22T05:01:24.332Z,8.38
2023-03-22T05:03:50.987Z,8.38
2023-03-22T05:06:17.956Z,8.34
2023-03-22T05:08:44.725Z,8.33
2023-03-22T05:11:20.456Z,8.30
2023-03-22T05:13:47.080Z,8.25
2023-03-22T05:16:13.925Z,8.23
2023-03-22T05:18:45.796Z,8.16
2023-03-22T05:21:15.640Z,8.16
2023-03-22T05:24:15.527Z,8.20
2023-03-22T05:26:42.588Z,8.18
2023-03-22T05:29:13.333Z,8.18
2023-03-22T05:31:42.337Z,8.20
2023-03-22T05:34:09.980Z,8.21
2023-03-22T05:39:04.031Z,8.33
2023-03-22T05:41:35.898Z,8.32
2023-03-22T05:44:04.620Z,8.32
2023-03-22T05:46:31.302Z,8.41
2023-03-22T05:48:58.037Z,8.45
2023-03-22T05:51:25.609Z,8.49
2023-03-22T05:53:53.815Z,8.50
2023-03-22T05:56:25.059Z,8.51
2023-03-22T05:58:51.887Z,8.57
2023-03-22T06:01:20.544Z,8.67
2023-03-22T06:03:48.481Z,8.72
2023-03-22T06:06:15.862Z,8.76
2023-03-22T06:08:44.186Z,8.71
2023-03-22T06:11:11.204Z,8.73
2023-03-22T06:16:06.182Z,8.95
2023-03-22T06:18:33.349Z,9.07
2023-03-22T06:21:00.170Z,9.00
2023-03-22T06:23:27.279Z,8.98
2023-03-22T06:25:53.788Z,8.99
2023-03-22T06:28:26.802Z,9.09
2023-03-22T06:30:53.324Z,9.10
2023-03-22T06:33:19.888Z,9.15
2023-03-22T06:35:46.584Z,9.15
2023-03-22T06:38:13.547Z,9.30
2023-03-22T06:40:40.514Z,9.31
2023-03-22T06:43:07.689Z,9.49
2023-03-22T06:48:01.333Z,9.63
2023-03-22T06:50:28.880Z,9.82
2023-03-22T06:52:55.828Z,9.89
2023-03-22T06:55:22.591Z,9.87
2023-03-22T06:57:49.062Z,9.87
2023-03-22T07:00:16.008Z,9.91
2023-03-22T07:02:42.496Z,9.93
2023-03-22T07:05:09.322Z,10.07
2023-03-22T07:10:02.251Z,10.36
2023-03-22T07:12:28.902Z,10.57
2023-03-22T07:14:55.674Z,10.71
2023-03-22T07:17:22.177Z,10.75
2023-03-22T07:19:48.919Z,11.11
2023-03-22T07:22:15.466Z,12.66
2023-03-22T07:24:53.838Z,14.48
2023-03-22T07:27:23.036Z,16.33
2023-03-22T07:29:49.760Z,17.35
2023-03-22T07:32:19.448Z,17.78
2023-03-22T07:34:46.379Z,17.37
2023-03-22T07:37:13.100Z,17.23
2023-03-22T07:39:39.753Z,16.29
2023-03-22T07:42:06.816Z,18.68
2023-03-22T07:44:33.535Z,18.57
2023-03-22T07:47:00.210Z,19.54
2023-03-22T07:49:27.168Z,19.64
2023-03-22T07:51:53.684Z,20.13
2023-03-22T07:54:32.905Z,18.67
2023-03-22T07:57:01.271Z,17.70
2023-03-22T07:59:28.174Z,16.47
2023-03-22T08:01:54.810Z,16.93
2023-03-22T08:04:22.498Z,18.29
2023-03-22T08:06:49.758Z,19.55
2023-03-22T08:09:16.380Z,20.07
2023-03-22T08:14:15.135Z,21.85
2023-03-22T08:16:44.104Z,20.44
2023-03-22T08:19:11.404Z,19.98
2023-03-22T08:21:38.160Z,19.09
2023-03-22T08:24:06.236Z,18.48
2023-03-22T08:26:32.760Z,19.09
2023-03-22T08:28:59.662Z,19.89
2023-03-22T08:31:26.431Z,18.49
2023-03-22T08:33:52.957Z,18.08
2023-03-22T08:36:22.883Z,17.79
2023-03-22T08:38:49.366Z,18.45
2023-03-22T08:41:16.279Z,19.15
2023-03-22T08:46:09.592Z,19.15
2023-03-22T08:48:37.919Z,20.96
2023-03-22T08:51:06.436Z,19.84
2023-03-22T08:53:33.048Z,19.75
2023-03-22T08:56:02.172Z,21.43
2023-03-22T08:58:28.640Z,21.34
2023-03-22T09:00:55.233Z,22.24
2023-03-22T09:03:24.807Z,20.56
2023-03-22T09:08:19.377Z,19.77
2023-03-22T09:13:18.132Z,20.29
2023-03-22T09:18:12.262Z,20.37
2023-03-22T09:20:39.261Z,20.45
2023-03-22T09:23:06.567Z,19.53
2023-03-22T09:25:33.189Z,18.88
2023-03-22T09:27:59.697Z,19.10
2023-03-22T09:30:26.284Z,19.44
2023-03-22T09:32:53.129Z,20.01
2023-03-22T09:35:20.068Z,19.57
2023-03-22T09:37:47.688Z,19.49
2023-03-22T09:40:17.552Z,18.87
2023-03-22T09:42:47.497Z,19.48
2023-03-22T09:45:18.425Z,20.42
2023-03-22T09:47:48.992Z,20.22
2023-03-22T09:50:20.680Z,18.51
2023-03-22T09:52:47.560Z,17.19
2023-03-22T09:55:43.382Z,17.99
2023-03-22T09:58:30.647Z,18.49
2023-03-22T10:01:03.053Z,19.38
2023-03-22T10:06:24.260Z,19.07
2023-03-22T10:08:59.647Z,19.70
2023-03-22T10:12:00.328Z,18.38
2023-03-22T10:14:39.058Z,19.58
2023-03-22T10:17:11.750Z,18.82
2023-03-22T10:20:05.384Z,19.42
2023-03-22T10:22:40.752Z,19.89
2023-03-22T10:25:09.340Z,20.16
2023-03-22T10:27:37.298Z,19.93
2023-03-22T10:30:09.923Z,19.39
2023-03-22T10:32:57.593Z,18.39
2023-03-22T10:35:25.532Z,18.10
2023-03-22T10:40:26.200Z,17.42
2023-03-22T10:42:57.206Z,17.08
2023-03-22T10:45:27.824Z,17.02
2023-03-22T10:48:03.895Z,17.04
2023-03-22T10:50:37.036Z,17.66
2023-03-22T10:53:13.896Z,18.20
2023-03-22T10:55:42.492Z,18.50
2023-03-22T10:58:15.678Z,18.69
2023-03-22T11:03:48.950Z,18.72
2023-03-22T11:06:18.166Z,18.74
2023-03-22T11:08:50.414Z,18.22
2023-03-22T11:11:26.266Z,17.84
2023-03-22T11:14:07.868Z,17.87
2023-03-22T11:16:51.597Z,17.61
2023-03-22T11:19:24.592Z,17.22
2023-03-22T11:21:51.628Z,17.65
2023-03-22T11:24:19.328Z,18.12
2023-03-22T11:27:04.116Z,18.59
2023-03-22T11:29:40.672Z,18.88
2023-03-22T11:32:30.681Z,18.11
2023-03-22T11:35:01.786Z,17.88
2023-03-22T11:37:28.681Z,17.92
2023-03-22T11:40:01.732Z,18.18
2023-03-22T11:42:28.856Z,18.34
2023-03-22T11:44:56.935Z,17.90
2023-03-22T11:47:27.233Z,18.22
2023-03-22T11:52:27.571Z,17.96
2023-03-22T11:54:56.108Z,17.72
2023-03-22T11:57:29.726Z,17.59
2023-03-22T12:00:12.112Z,17.90
2023-03-22T12:02:46.311Z,18.10
2023-03-22T12:05:23.509Z,18.03
2023-03-22T12:07:52.321Z,18.05
2023-03-22T12:10:26.557Z,18.58
2023-03-22T12:13:01.847Z,18.69
2023-03-22T12:15:41.892Z,18.42
2023-03-22T12:18:17.234Z,18.19
2023-03-22T12:20:55.492Z,18.16
2023-03-22T12:23:24.729Z,18.51
2023-03-22T12:26:04.266Z,18.91
2023-03-22T12:28:38.567Z,19.08
2023-03-22T12:31:08.057Z,19.00
2023-03-22T12:36:34.030Z,18.46
2023-03-22T12:39:03.729Z,18.63
2023-03-22T12:41:43.694Z,18.82
2023-03-22T12:44:28.006Z,19.35
2023-03-22T12:47:12.911Z,18.24
2023-03-22T12:49:46.928Z,17.92
2023-03-22T12:52:19.212Z,18.42
2023-03-22T12:54:50.083Z,18.85
2023-03-22T12:57:17.190Z,18.74
2023-03-22T12:59:48.280Z,18.52
2023-03-22T13:02:19.372Z,18.62
2023-03-22T13:04:51.256Z,18.83
2023-03-22T13:07:50.088Z,18.66
2023-03-22T13:10:32.385Z,18.18
2023-03-22T13:13:12.154Z,18.19
2023-03-22T13:15:42.520Z,18.39
2023-03-22T13:18:32.574Z,17.85
2023-03-22T13:21:16.522Z,18.05
2023-03-22T13:24:10.583Z,17.97
2023-03-22T13:26:50.588Z,18.71
2023-03-22T13:29:22.270Z,18.95
2023-03-22T13:31:52.756Z,18.86
2023-03-22T13:34:21.857Z,19.42
2023-03-22T13:36:54.918Z,19.62
2023-03-22T13:39:25.528Z,19.56
2023-03-22T13:42:26.382Z,19.23
2023-03-22T13:45:03.832Z,19.25
2023-03-22T13:47:47.101Z,19.53
2023-03-22T13:50:18.982Z,19.63
2023-03-22T13:53:05.358Z,19.46
2023-03-22T13:55:47.269Z,19.73
2023-03-22T13:58:51.445Z,19.84
2023-03-22T14:01:35.123Z,19.58
2023-03-22T14:04:10.403Z,19.57
2023-03-22T14:06:57.394Z,19.04
2023-03-22T14:09:37.423Z,19.38
2023-03-22T14:12:17.093Z,19.26
2023-03-22T14:14:48.912Z,19.43
2023-03-22T14:17:31.719Z,19.06
